Terminal Aerodrome Forecast
Issued by NWS Shreveport, LA

Home | Current Version | Previous Version | Text Only | Print | Product List | Glossary On
Versions: 1 2 3 4 5 6 7 8 9 10 11 12 13 14 15
000
FTUS44 KSHV 182300
TAFGGG
TAF
KGGG 182326Z 1900/1924 09004KT P6SM SCT060
     FM190200 09003KT P6SM SKC
     FM190700 VRB03KT P6SM SCT250
     FM191600 13005KT P6SM SCT035 BKN250=

USA.gov is the U.S. government's official web portal to all federal, state and local government web resources and services.